CMA CGM Hugo — DCTA2 — position and weather

sailwx.info

Track history (hours):
 
Tides and Currents Weather Stations Pressure Air Temp Water Temp Dewpoint Dewpoint Depression Visibility Wind Speed Wind Dir Waves Ship Positions

CMA CGM Hugo

Last reported at 2014-Dec-20 16:10 UTC. Time now 2014-Dec-22 12:07 UTC.
Position N 21°59' E 114°00'.

Length 334.1 m; beam 42.8 m; draft 14.5 m.

Type: Ship. MMSI: 211831000.

Date/timePositionNaut miles runAvg speedWind from/ knotsBaromVisibWave heightAir tempDewpointWater temp
2014-Dec-20 16:10N 21°59' E 114°00'1418.2
2014-Dec-20 15:23N 22°09' E 114°12'1012.5
2014-Dec-20 14:34N 22°17' E 114°06'3 2.7
2014-Dec-20 13:31N 22°20' E 114°08'0 0.0
2014-Dec-20 12:33N 22°20' E 114°08'0 0.0
2014-Dec-20 11:06N 22°20' E 114°08'0 0.0
2014-Dec-20 10:29N 22°20' E 114°08'0 0.0
2014-Dec-20 09:29N 22°20' E 114°08'0 0.0
2014-Dec-20 08:28N 22°20' E 114°08'0 0.0
2014-Dec-20 07:31N 22°20' E 114°08'0 0.0
2014-Dec-20 06:31N 22°20' E 114°08'0 0.0
2014-Dec-20 05:24N 22°20' E 114°08'0 0.0
2014-Dec-20 04:30N 22°20' E 114°08'0 0.0
2014-Dec-20 03:33N 22°20' E 114°08'0 0.1
2014-Dec-20 02:33N 22°20' E 114°08'0 0.1
2014-Dec-20 01:32N 22°20' E 114°08'0 0.0
2014-Dec-19 23:32N 22°20' E 114°08'0 0.2
2014-Dec-19 22:33N 22°20' E 114°07'7 6.4
2014-Dec-19 21:25N 22°13' E 114°10'8 7.2
2014-Dec-19 20:16N 22°09' E 114°18'8 8.3
2014-Dec-19 19:16N 22°12' E 114°26'24 6.5
2014-Dec-19 15:32N 22°34' E 114°16'0 0.0
2014-Dec-19 14:31N 22°34' E 114°16'0 0.0
2014-Dec-19 13:31N 22°34' E 114°16'0 0.0
2014-Dec-19 12:25N 22°34' E 114°16'0 0.0
2014-Dec-19 11:18N 22°34' E 114°16'0 0.0
2014-Dec-19 08:29N 22°34' E 114°16'0 0.0
2014-Dec-19 06:16N 22°34' E 114°16'0 0.0
2014-Dec-19 04:32N 22°34' E 114°16'15 6.7
2014-Dec-19 02:18N 22°25' E 114°29'15317.0
2014-Dec-18 17:21N 23°01' E 117°10'47018.6
2014-Dec-17 16:06N 29°13' E 122°30'2919.0
2014-Dec-17 14:33N 29°42' E 122°28'1514.7
2014-Dec-17 13:33N 29°49' E 122°13'1010.4
2014-Dec-17 12:33N 29°54' E 122°03'1 0.5
2014-Dec-17 11:14N 29°53' E 122°03'0 0.0
2014-Dec-17 10:14N 29°53' E 122°03'0 0.0
2014-Dec-17 09:19N 29°53' E 122°03'0 0.0
2014-Dec-17 07:24N 29°53' E 122°03'0 0.0
2014-Dec-17 06:12N 29°53' E 122°03'0 0.0
2014-Dec-17 05:12N 29°53' E 122°03'0 0.0
2014-Dec-17 04:29N 29°53' E 122°03'0 0.0
2014-Dec-17 03:23N 29°53' E 122°03'0 0.0
2014-Dec-17 01:22N 29°53' E 122°03'0 0.0
2014-Dec-17 00:21N 29°53' E 122°03'0 0.0
2014-Dec-16 23:29N 29°53' E 122°03'0 0.0
2014-Dec-16 22:22N 29°53' E 122°03'0 0.0
2014-Dec-16 21:22N 29°53' E 122°03'0 0.0
2014-Dec-16 20:28N 29°53' E 122°03'0 0.0
2014-Dec-16 18:03N 29°53' E 122°03'0 0.0
2014-Dec-16 15:31N 29°53' E 122°03'0 0.0
2014-Dec-16 14:19N 29°53' E 122°03'0 0.0
2014-Dec-16 12:30N 29°53' E 122°03'0 0.0
2014-Dec-16 11:12N 29°53' E 122°03'0 0.0
2014-Dec-16 10:05N 29°53' E 122°03'0 0.0
2014-Dec-16 09:11N 29°53' E 122°03'0 0.0
2014-Dec-16 08:22N 29°53' E 122°03'0 0.0
2014-Dec-16 07:28N 29°53' E 122°03'0 0.0
2014-Dec-16 04:10N 29°53' E 122°03'0 0.0
2014-Dec-16 02:32N 29°53' E 122°03'0 0.0
2014-Dec-16 00:31N 29°53' E 122°03'0 0.0
2014-Dec-15 23:18N 29°53' E 122°03'0 0.0
2014-Dec-15 22:24N 29°53' E 122°03'0 0.0
2014-Dec-15 19:23N 29°53' E 122°03'0 0.0
2014-Dec-15 18:28N 29°53' E 122°03'0 0.0
2014-Dec-15 17:10N 29°53' E 122°03'0 0.0
2014-Dec-15 16:09N 29°53' E 122°03'0 0.0
2014-Dec-15 14:30N 29°53' E 122°03'0 0.0
2014-Dec-15 13:32N 29°53' E 122°03'0 0.0
2014-Dec-15 12:14N 29°53' E 122°03'0 0.0
2014-Dec-15 10:31N 29°53' E 122°03'1 1.2
2014-Dec-15 09:33N 29°54' E 122°04'1010.0
2014-Dec-15 08:33N 29°49' E 122°14'1010.1
2014-Dec-15 07:32N 29°47' E 122°25'1 0.5
2014-Dec-15 06:33N 29°48' E 122°25'1 0.9
2014-Dec-15 05:33N 29°47' E 122°26'2 1.7
2014-Dec-15 04:29N 29°46' E 122°24'17 8.7
2014-Dec-15 02:29N 29°58' E 122°40'1210.0
2014-Dec-15 01:14N 30°07' E 122°49'710.3
2014-Dec-15 00:33N 30°14' E 122°48'1110.7
2014-Dec-14 23:30N 30°25' E 122°44'11 9.7
2014-Dec-14 22:23N 30°30' E 122°33'910.4
2014-Dec-14 21:32N 30°32' E 122°23'1110.7
2014-Dec-14 20:33N 30°33' E 122°11'7 5.9
2014-Dec-14 19:17N 30°37' E 122°04'0 0.0
2014-Dec-14 17:14N 30°37' E 122°04'0 0.0
2014-Dec-14 08:25N 30°38' E 122°04'0 0.1
2014-Dec-14 07:21N 30°38' E 122°04'0 0.1
2014-Dec-14 06:30N 30°38' E 122°03'0 0.1
2014-Dec-14 05:32N 30°38' E 122°03'0 0.0
2014-Dec-14 04:29N 30°37' E 122°03'0 0.0
2014-Dec-14 03:32N 30°37' E 122°03'0 0.0
2014-Dec-14 02:25N 30°37' E 122°03'0 0.1
2014-Dec-14 01:31N 30°37' E 122°04'0 0.0
2014-Dec-14 00:33N 30°37' E 122°04'0 0.0
2014-Dec-13 23:21N 30°37' E 122°04'0 0.0
2014-Dec-13 22:29N 30°37' E 122°04'0 0.1
2014-Dec-13 21:32N 30°37' E 122°03'0 0.0
2014-Dec-13 20:32N 30°37' E 122°03'0 0.0
2014-Dec-13 19:31N 30°37' E 122°03'0 0.1
2014-Dec-13 18:31N 30°37' E 122°04'0 0.1
2014-Dec-13 17:30N 30°37' E 122°04'0 0.1
2014-Dec-13 16:21N 30°37' E 122°04'0 0.4
2014-Dec-13 15:33N 30°37' E 122°03'1111.3
2014-Dec-13 14:33N 30°33' E 122°16'5 4.8
2014-Dec-13 13:33N 30°32' E 122°21'10 1.9
2014-Dec-13 08:31N 30°29' E 122°32'0 0.1
2014-Dec-13 07:18N 30°29' E 122°32'0 0.0
2014-Dec-13 04:08N 30°29' E 122°32'0 0.2
2014-Dec-13 03:20N 30°29' E 122°32'0 0.2
2014-Dec-13 02:31N 30°29' E 122°32'9 7.3
2014-Dec-13 01:14N 30°28' E 122°43'910.4
2014-Dec-13 00:22N 30°24' E 122°52'44912.1
2014-Dec-11 11:13N 23°55' E 118°39'1014.9
2014-Dec-11 10:31N 23°49' E 118°31'1414.8
2014-Dec-11 09:33N 23°40' E 118°18'8616.6
2014-Dec-11 04:23N 22°55' E 116°59'1922.3
2014-Dec-11 03:33N 22°45' E 116°42'14618.2
2014-Dec-10 19:33N 22°20' E 114°07'  
Track history (hours):
 
Tides and Currents Weather Stations Pressure Air Temp Water Temp Dewpoint Dewpoint Depression Visibility Wind Speed Wind Dir Waves Ship Positions

CMA CGM Hugo

Last reported at 2014-Dec-20 16:10 UTC. Time now 2014-Dec-22 12:07 UTC.
Position N 21°59' E 114°00'.

Length 334.1 m; beam 42.8 m; draft 14.5 m.

Type: Ship. MMSI: 211831000.

Date/timePositionNaut miles runAvg speedWind from/ knotsBaromVisibWave heightAir tempDewpointWater temp
2014-Dec-20 16:10N 21°59' E 114°00'1418.2
2014-Dec-20 15:23N 22°09' E 114°12'1012.5
2014-Dec-20 14:34N 22°17' E 114°06'3 2.7
2014-Dec-20 13:31N 22°20' E 114°08'0 0.0
2014-Dec-20 12:33N 22°20' E 114°08'0 0.0
2014-Dec-20 11:06N 22°20' E 114°08'0 0.0
2014-Dec-20 10:29N 22°20' E 114°08'0 0.0
2014-Dec-20 09:29N 22°20' E 114°08'0 0.0
2014-Dec-20 08:28N 22°20' E 114°08'0 0.0
2014-Dec-20 07:31N 22°20' E 114°08'0 0.0
2014-Dec-20 06:31N 22°20' E 114°08'0 0.0
2014-Dec-20 05:24N 22°20' E 114°08'0 0.0
2014-Dec-20 04:30N 22°20' E 114°08'0 0.0
2014-Dec-20 03:33N 22°20' E 114°08'0 0.1
2014-Dec-20 02:33N 22°20' E 114°08'0 0.1
2014-Dec-20 01:32N 22°20' E 114°08'0 0.0
2014-Dec-19 23:32N 22°20' E 114°08'0 0.2
2014-Dec-19 22:33N 22°20' E 114°07'7 6.4
2014-Dec-19 21:25N 22°13' E 114°10'8 7.2
2014-Dec-19 20:16N 22°09' E 114°18'8 8.3
2014-Dec-19 19:16N 22°12' E 114°26'24 6.5
2014-Dec-19 15:32N 22°34' E 114°16'0 0.0
2014-Dec-19 14:31N 22°34' E 114°16'0 0.0
2014-Dec-19 13:31N 22°34' E 114°16'0 0.0
2014-Dec-19 12:25N 22°34' E 114°16'0 0.0
2014-Dec-19 11:18N 22°34' E 114°16'0 0.0
2014-Dec-19 08:29N 22°34' E 114°16'0 0.0
2014-Dec-19 06:16N 22°34' E 114°16'0 0.0
2014-Dec-19 04:32N 22°34' E 114°16'15 6.7
2014-Dec-19 02:18N 22°25' E 114°29'15317.0
2014-Dec-18 17:21N 23°01' E 117°10'47018.6
2014-Dec-17 16:06N 29°13' E 122°30'2919.0
2014-Dec-17 14:33N 29°42' E 122°28'1514.7
2014-Dec-17 13:33N 29°49' E 122°13'1010.4
2014-Dec-17 12:33N 29°54' E 122°03'1 0.5
2014-Dec-17 11:14N 29°53' E 122°03'0 0.0
2014-Dec-17 10:14N 29°53' E 122°03'0 0.0
2014-Dec-17 09:19N 29°53' E 122°03'0 0.0
2014-Dec-17 07:24N 29°53' E 122°03'0 0.0
2014-Dec-17 06:12N 29°53' E 122°03'0 0.0
2014-Dec-17 05:12N 29°53' E 122°03'0 0.0
2014-Dec-17 04:29N 29°53' E 122°03'0 0.0
2014-Dec-17 03:23N 29°53' E 122°03'0 0.0
2014-Dec-17 01:22N 29°53' E 122°03'0 0.0
2014-Dec-17 00:21N 29°53' E 122°03'0 0.0
2014-Dec-16 23:29N 29°53' E 122°03'0 0.0
2014-Dec-16 22:22N 29°53' E 122°03'0 0.0
2014-Dec-16 21:22N 29°53' E 122°03'0 0.0
2014-Dec-16 20:28N 29°53' E 122°03'0 0.0
2014-Dec-16 18:03N 29°53' E 122°03'0 0.0
2014-Dec-16 15:31N 29°53' E 122°03'0 0.0
2014-Dec-16 14:19N 29°53' E 122°03'0 0.0
2014-Dec-16 12:30N 29°53' E 122°03'0 0.0
2014-Dec-16 11:12N 29°53' E 122°03'0 0.0
2014-Dec-16 10:05N 29°53' E 122°03'0 0.0
2014-Dec-16 09:11N 29°53' E 122°03'0 0.0
2014-Dec-16 08:22N 29°53' E 122°03'0 0.0
2014-Dec-16 07:28N 29°53' E 122°03'0 0.0
2014-Dec-16 04:10N 29°53' E 122°03'0 0.0
2014-Dec-16 02:32N 29°53' E 122°03'0 0.0
2014-Dec-16 00:31N 29°53' E 122°03'0 0.0
2014-Dec-15 23:18N 29°53' E 122°03'0 0.0
2014-Dec-15 22:24N 29°53' E 122°03'0 0.0
2014-Dec-15 19:23N 29°53' E 122°03'0 0.0
2014-Dec-15 18:28N 29°53' E 122°03'0 0.0
2014-Dec-15 17:10N 29°53' E 122°03'0 0.0
2014-Dec-15 16:09N 29°53' E 122°03'0 0.0
2014-Dec-15 14:30N 29°53' E 122°03'0 0.0
2014-Dec-15 13:32N 29°53' E 122°03'0 0.0
2014-Dec-15 12:14N 29°53' E 122°03'0 0.0
2014-Dec-15 10:31N 29°53' E 122°03'1 1.2
2014-Dec-15 09:33N 29°54' E 122°04'1010.0
2014-Dec-15 08:33N 29°49' E 122°14'1010.1
2014-Dec-15 07:32N 29°47' E 122°25'1 0.5
2014-Dec-15 06:33N 29°48' E 122°25'1 0.9
2014-Dec-15 05:33N 29°47' E 122°26'2 1.7
2014-Dec-15 04:29N 29°46' E 122°24'17 8.7
2014-Dec-15 02:29N 29°58' E 122°40'1210.0
2014-Dec-15 01:14N 30°07' E 122°49'710.3
2014-Dec-15 00:33N 30°14' E 122°48'1110.7
2014-Dec-14 23:30N 30°25' E 122°44'11 9.7
2014-Dec-14 22:23N 30°30' E 122°33'910.4
2014-Dec-14 21:32N 30°32' E 122°23'1110.7
2014-Dec-14 20:33N 30°33' E 122°11'7 5.9
2014-Dec-14 19:17N 30°37' E 122°04'0 0.0
2014-Dec-14 17:14N 30°37' E 122°04'0 0.0
2014-Dec-14 08:25N 30°38' E 122°04'0 0.1
2014-Dec-14 07:21N 30°38' E 122°04'0 0.1
2014-Dec-14 06:30N 30°38' E 122°03'0 0.1
2014-Dec-14 05:32N 30°38' E 122°03'0 0.0
2014-Dec-14 04:29N 30°37' E 122°03'0 0.0
2014-Dec-14 03:32N 30°37' E 122°03'0 0.0
2014-Dec-14 02:25N 30°37' E 122°03'0 0.1
2014-Dec-14 01:31N 30°37' E 122°04'0 0.0
2014-Dec-14 00:33N 30°37' E 122°04'0 0.0
2014-Dec-13 23:21N 30°37' E 122°04'0 0.0
2014-Dec-13 22:29N 30°37' E 122°04'0 0.1
2014-Dec-13 21:32N 30°37' E 122°03'0 0.0
2014-Dec-13 20:32N 30°37' E 122°03'0 0.0
2014-Dec-13 19:31N 30°37' E 122°03'0 0.1
2014-Dec-13 18:31N 30°37' E 122°04'0 0.1
2014-Dec-13 17:30N 30°37' E 122°04'0 0.1
2014-Dec-13 16:21N 30°37' E 122°04'0 0.4
2014-Dec-13 15:33N 30°37' E 122°03'1111.3
2014-Dec-13 14:33N 30°33' E 122°16'5 4.8
2014-Dec-13 13:33N 30°32' E 122°21'10 1.9
2014-Dec-13 08:31N 30°29' E 122°32'0 0.1
2014-Dec-13 07:18N 30°29' E 122°32'0 0.0
2014-Dec-13 04:08N 30°29' E 122°32'0 0.2
2014-Dec-13 03:20N 30°29' E 122°32'0 0.2
2014-Dec-13 02:31N 30°29' E 122°32'9 7.3
2014-Dec-13 01:14N 30°28' E 122°43'910.4
2014-Dec-13 00:22N 30°24' E 122°52'44912.1
2014-Dec-11 11:13N 23°55' E 118°39'1014.9
2014-Dec-11 10:31N 23°49' E 118°31'1414.8
2014-Dec-11 09:33N 23°40' E 118°18'8616.6
2014-Dec-11 04:23N 22°55' E 116°59'1922.3
2014-Dec-11 03:33N 22°45' E 116°42'14618.2
2014-Dec-10 19:33N 22°20' E 114°07'  

Dump ship's entire track history